Time;durP1;ratioP1;P1;durP2;ratioP2;P2;SDS_P1;SDS_P2;PMS_P1;PMS_P2;Temp;Humidity;BMP_temperature;BMP_pressure;BME280_temperature;BME280_humidity;BME280_pressure;Samples;Min_cycle;Max_cycle;Signal;HPM_P1;HPM_P2
2022/12/23 00:00:42;;;;;;;56.60;25.45;;;6.70;99.90;;;;;;5130383;27;20035;-81
2022/12/23 00:03:08;;;;;;;69.75;25.08;;;6.70;99.90;;;;;;5118378;28;20440;-80
2022/12/23 00:05:40;;;;;;;49.58;22.20;;;6.70;99.90;;;;;;5125528;27;20147;-80
2022/12/23 00:08:07;;;;;;;45.60;20.48;;;6.70;99.90;;;;;;5124273;28;20063;-81
2022/12/23 00:10:36;;;;;;;43.80;19.77;;;6.70;99.90;;;;;;5125437;28;20469;-82
2022/12/23 00:15:46;;;;;;;42.53;19.63;;;6.70;99.90;;;;;;5131635;27;20126;-80
2022/12/23 00:18:11;;;;;;;107.45;26.23;;;6.70;99.90;;;;;;5126164;27;20122;-80
2022/12/23 00:20:37;;;;;;;92.10;25.67;;;7.00;99.90;;;;;;5129738;27;20473;-81
2022/12/23 00:23:05;;;;;;;48.78;21.55;;;6.70;99.90;;;;;;5127954;27;20027;-80
2022/12/23 00:25:44;;;;;;;53.67;23.63;;;6.70;99.90;;;;;;5138368;27;20036;-83
2022/12/23 00:28:19;;;;;;;47.45;22.13;;;6.70;99.90;;;;;;5118838;27;20051;-81
2022/12/23 00:31:06;;;;;;;49.03;20.92;;;6.70;99.90;;;;;;5128874;27;20042;-80
2022/12/23 00:33:34;;;;;;;46.15;20.45;;;6.70;99.90;;;;;;5130793;27;20051;-80
2022/12/23 00:36:00;;;;;;;53.17;22.48;;;6.70;99.90;;;;;;5128473;27;20046;-80
2022/12/23 00:44:01;;;;;;;69.50;24.45;;;6.70;99.90;;;;;;5128451;27;20040;-80
2022/12/23 00:46:27;;;;;;;52.38;24.13;;;6.60;99.90;;;;;;5129810;27;20455;-80
2022/12/23 00:51:37;;;;;;;;;;;6.70;99.90;;;;;;5125381;27;20031;-80
2022/12/23 00:54:03;;;;;;;47.47;20.83;;;6.60;99.90;;;;;;5124184;27;20002;-79
2022/12/23 00:56:29;;;;;;;54.58;23.33;;;6.70;99.90;;;;;;5126837;27;20031;-80
2022/12/23 00:58:54;;;;;;;55.63;22.85;;;6.60;99.90;;;;;;5131384;27;20057;-79
2022/12/23 01:06:48;;;;;;;55.23;22.50;;;6.60;99.90;;;;;;5134897;27;19935;-83
2022/12/23 01:09:13;;;;;;;57.35;23.77;;;6.60;99.90;;;;;;5130923;27;20036;-80
2022/12/23 01:11:39;;;;;;;58.22;24.42;;;6.60;99.90;;;;;;5130076;27;20130;-80
2022/12/23 01:14:05;;;;;;;60.65;24.58;;;6.60;99.90;;;;;;5134273;27;20041;-81
2022/12/23 01:16:30;;;;;;;61.63;25.63;;;6.60;99.90;;;;;;5131735;27;20506;-80
2022/12/23 01:18:57;;;;;;;61.33;24.65;;;6.60;99.90;;;;;;5128775;27;20192;-80
2022/12/23 01:21:22;;;;;;;66.68;25.67;;;6.60;99.90;;;;;;5129631;27;20099;-82
2022/12/23 01:23:48;;;;;;;62.67;25.17;;;6.60;99.90;;;;;;5128190;27;20031;-80
2022/12/23 01:26:13;;;;;;;56.05;24.38;;;6.60;99.90;;;;;;5127617;27;20035;-79
2022/12/23 01:28:39;;;;;;;63.20;24.50;;;6.60;99.90;;;;;;5129314;27;20577;-80
2022/12/23 01:31:08;;;;;;;58.53;25.55;;;6.60;99.90;;;;;;5127961;27;20045;-81
2022/12/23 01:33:33;;;;;;;54.00;24.17;;;6.70;99.90;;;;;;5128786;27;20040;-80
2022/12/23 01:36:01;;;;;;;63.13;25.13;;;6.70;99.90;;;;;;5130954;27;20035;-81
2022/12/23 01:38:26;;;;;;;64.85;25.85;;;6.60;99.90;;;;;;5126325;27;20079;-80
2022/12/23 01:40:52;;;;;;;57.65;25.02;;;6.60;99.90;;;;;;5131667;27;20086;-80
2022/12/23 01:43:19;;;;;;;80.63;26.67;;;6.70;99.90;;;;;;5127550;27;20027;-82
2022/12/23 01:45:45;;;;;;;63.38;25.52;;;6.60;99.90;;;;;;5128173;27;20031;-79
2022/12/23 01:48:18;;;;;;;66.63;27.05;;;6.60;99.90;;;;;;5126599;27;20081;-80
2022/12/23 01:50:48;;;;;;;61.97;26.05;;;6.70;99.90;;;;;;5127845;27;20078;-81
2022/12/23 01:53:20;;;;;;;100.80;28.88;;;6.60;99.90;;;;;;5126367;27;20501;-80
2022/12/23 01:56:05;;;;;;;71.28;27.05;;;6.60;99.90;;;;;;5135524;27;20455;-80
2022/12/23 01:58:37;;;;;;;79.82;27.60;;;6.60;99.90;;;;;;5125253;27;20037;-80
2022/12/23 02:03:52;;;;;;;68.95;26.83;;;6.60;99.90;;;;;;5129140;27;20035;-81
2022/12/23 02:09:23;;;;;;;74.22;28.00;;;6.60;99.90;;;;;;5127041;27;20043;-81
2022/12/23 02:12:30;;;;;;;73.30;27.30;;;6.60;99.90;;;;;;5123965;27;20123;-80
2022/12/23 02:18:00;;;;;;;79.20;27.77;;;6.60;99.90;;;;;;5126061;27;20047;-80
2022/12/23 02:21:03;;;;;;;92.72;28.90;;;6.60;99.90;;;;;;5125293;27;20032;-79
2022/12/23 02:23:41;;;;;;;89.55;29.50;;;6.60;99.90;;;;;;5125033;27;20031;-82
2022/12/23 02:26:50;;;;;;;71.43;27.77;;;6.60;99.90;;;;;;5122742;27;20073;-81
2022/12/23 02:29:59;;;;;;;67.38;25.70;;;6.60;99.90;;;;;;5129574;27;20050;-81
2022/12/23 02:32:57;;;;;;;77.80;26.65;;;6.60;99.90;;;;;;5132213;27;20047;-82
2022/12/23 02:35:50;;;;;;;74.45;26.48;;;6.60;99.90;;;;;;5127009;27;20035;-79
2022/12/23 02:38:24;;;;;;;75.95;27.33;;;6.60;99.90;;;;;;5122576;27;20413;-81
2022/12/23 02:41:05;;;;;;;69.68;26.52;;;6.60;99.90;;;;;;5125183;27;20035;-79
2022/12/23 02:43:54;;;;;;;75.47;27.67;;;6.60;99.90;;;;;;5120773;27;20115;-80
2022/12/23 02:46:31;;;;;;;121.05;30.55;;;6.60;99.90;;;;;;5124696;27;20092;-80
2022/12/23 02:49:08;;;;;;;88.13;28.33;;;6.50;99.90;;;;;;5130030;27;20400;-80
2022/12/23 02:51:39;;;;;;;74.32;26.42;;;6.50;99.90;;;;;;5114924;27;20085;-82
2022/12/23 02:54:09;;;;;;;70.80;26.08;;;6.50;99.90;;;;;;5132030;27;20027;-81
2022/12/23 02:56:38;;;;;;;75.15;26.85;;;6.50;99.90;;;;;;5127377;27;20044;-80
2022/12/23 02:59:15;;;;;;;74.65;25.80;;;6.50;99.90;;;;;;5130072;27;20078;-82
2022/12/23 03:01:41;;;;;;;74.78;25.67;;;6.50;99.90;;;;;;5126105;27;20067;-80
2022/12/23 03:04:07;;;;;;;71.07;26.02;;;6.50;99.90;;;;;;5126837;27;20027;-79
2022/12/23 03:06:40;;;;;;;109.30;29.27;;;6.50;99.90;;;;;;5130750;27;20054;-80
2022/12/23 03:09:06;;;;;;;79.63;27.15;;;6.50;99.90;;;;;;5126739;27;20031;-81
2022/12/23 03:11:49;;;;;;;75.10;25.83;;;6.60;99.90;;;;;;5126328;27;20035;-80
2022/12/23 03:14:25;;;;;;;68.13;24.95;;;6.50;99.90;;;;;;5129757;27;20031;-83
2022/12/23 03:17:06;;;;;;;66.70;24.25;;;6.50;99.90;;;;;;5127380;27;20412;-82
2022/12/23 03:19:48;;;;;;;71.85;25.40;;;6.50;99.90;;;;;;5122852;27;20059;-80
2022/12/23 03:22:36;;;;;;;107.07;27.92;;;6.50;99.90;;;;;;5120085;27;20035;-80
2022/12/23 03:25:05;;;;;;;72.70;25.13;;;6.50;99.90;;;;;;5127335;27;20389;-80
2022/12/23 03:27:41;;;;;;;76.78;24.67;;;6.50;99.90;;;;;;5116600;27;20041;-83
2022/12/23 03:30:16;;;;;;;69.95;24.50;;;6.50;99.90;;;;;;5129503;27;20054;-82
2022/12/23 03:32:48;;;;;;;68.32;24.52;;;6.50;99.90;;;;;;5128951;27;20076;-80
2022/12/23 03:35:18;;;;;;;70.10;24.27;;;6.50;99.90;;;;;;5124022;27;20039;-79
2022/12/23 03:37:48;;;;;;;75.78;25.13;;;6.50;99.90;;;;;;5120465;27;20121;-79
2022/12/23 03:40:34;;;;;;;82.53;26.15;;;6.50;99.90;;;;;;5128696;27;20035;-81
2022/12/23 03:43:06;;;;;;;69.45;24.27;;;6.50;99.90;;;;;;5128228;27;20442;-80
2022/12/23 03:45:43;;;;;;;71.10;23.92;;;6.50;99.90;;;;;;5122499;27;20079;-81
2022/12/23 03:48:22;;;;;;;73.93;24.02;;;6.50;99.90;;;;;;5127552;27;20182;-79
2022/12/23 03:50:54;;;;;;;78.88;23.08;;;6.50;99.90;;;;;;5124343;27;20042;-80
2022/12/23 03:53:44;;;;;;;67.25;23.80;;;6.50;99.90;;;;;;5130190;27;20519;-79
2022/12/23 03:56:19;;;;;;;59.67;21.73;;;6.50;99.90;;;;;;5112971;28;20058;-82
2022/12/23 03:58:55;;;;;;;69.90;22.80;;;6.50;99.90;;;;;;5126920;27;20381;-80
2022/12/23 04:01:39;;;;;;;71.55;22.58;;;6.50;99.90;;;;;;5128310;27;20051;-80
2022/12/23 04:04:13;;;;;;;64.25;22.08;;;6.50;99.90;;;;;;5117112;27;20040;-80
2022/12/23 04:06:47;;;;;;;64.90;22.23;;;6.50;99.90;;;;;;5120856;28;20042;-79
2022/12/23 04:09:14;;;;;;;;;;;6.50;99.90;;;;;;5129820;27;20035;-80
2022/12/23 04:11:40;;;;;;;60.25;21.45;;;6.50;99.90;;;;;;5128021;28;19923;-82
2022/12/23 04:14:06;;;;;;;62.33;21.48;;;6.50;99.90;;;;;;5123665;28;20441;-79
2022/12/23 04:16:32;;;;;;;58.72;20.85;;;6.50;99.90;;;;;;5125861;28;20063;-79
2022/12/23 04:18:58;;;;;;;72.97;22.88;;;6.50;99.90;;;;;;5125326;28;20027;-79
2022/12/23 04:21:23;;;;;;;61.97;22.10;;;6.40;99.90;;;;;;5124772;28;20445;-79
2022/12/23 04:23:49;;;;;;;65.75;21.42;;;6.40;99.90;;;;;;5126119;28;20474;-79
2022/12/23 04:26:14;;;;;;;66.03;21.10;;;6.40;99.90;;;;;;5127742;28;20032;-79
2022/12/23 04:28:40;;;;;;;65.00;21.35;;;6.40;99.90;;;;;;5115283;28;20417;-79
2022/12/23 04:31:05;;;;;;;62.08;20.00;;;6.40;99.90;;;;;;5126389;28;20092;-79
2022/12/23 04:33:31;;;;;;;58.20;19.92;;;6.30;99.90;;;;;;5106454;28;20067;-81
2022/12/23 04:35:59;;;;;;;59.28;20.70;;;6.30;99.90;;;;;;5129354;28;20046;-79
2022/12/23 04:38:25;;;;;;;63.03;21.33;;;6.30;99.90;;;;;;5119445;28;20180;-79
2022/12/23 04:40:50;;;;;;;54.83;19.52;;;6.40;99.90;;;;;;5118695;28;20062;-79
2022/12/23 04:43:16;;;;;;;60.40;21.42;;;6.40;99.90;;;;;;5124686;28;20446;-81
2022/12/23 04:45:41;;;;;;;104.95;21.85;;;6.40;99.90;;;;;;5126892;28;20042;-81
2022/12/23 04:48:07;;;;;;;70.80;20.63;;;6.40;99.90;;;;;;5121021;28;20516;-79
2022/12/23 04:50:32;;;;;;;75.88;20.85;;;6.40;99.90;;;;;;5126994;28;20045;-80
2022/12/23 04:52:58;;;;;;;68.95;20.75;;;6.40;99.90;;;;;;5124202;28;20093;-80
2022/12/23 04:55:23;;;;;;;86.93;22.70;;;6.30;99.90;;;;;;5124264;27;20043;-82
2022/12/23 04:57:49;;;;;;;99.32;23.33;;;6.40;99.90;;;;;;5125739;27;20036;-80
2022/12/23 05:00:15;;;;;;;60.17;20.98;;;6.40;99.90;;;;;;5128141;27;20035;-79
2022/12/23 05:02:40;;;;;;;65.90;20.92;;;6.40;99.90;;;;;;5130679;27;20473;-80
2022/12/23 05:05:06;;;;;;;57.20;20.00;;;6.40;99.90;;;;;;5127973;27;20032;-80
2022/12/23 05:07:31;;;;;;;103.20;23.05;;;6.40;99.90;;;;;;5128072;27;20659;-80
2022/12/23 05:10:00;;;;;;;91.03;23.52;;;6.40;99.90;;;;;;5134073;27;20039;-79
2022/12/23 05:12:29;;;;;;;58.00;19.25;;;6.40;99.90;;;;;;5122668;27;20039;-80
2022/12/23 05:14:55;;;;;;;56.08;20.65;;;6.40;99.90;;;;;;5124556;27;20039;-79
2022/12/23 05:17:21;;;;;;;56.75;19.60;;;6.40;99.90;;;;;;5123678;27;20054;-79
2022/12/23 05:19:46;;;;;;;98.22;22.98;;;6.40;99.90;;;;;;5132653;27;20403;-82
2022/12/23 05:22:12;;;;;;;55.83;19.23;;;6.40;99.90;;;;;;5128921;27;20057;-80
2022/12/23 05:24:37;;;;;;;62.72;19.20;;;6.30;99.90;;;;;;5132762;27;20389;-80
2022/12/23 05:27:03;;;;;;;87.22;21.73;;;6.40;99.90;;;;;;5134689;27;20043;-80
2022/12/23 05:29:29;;;;;;;72.22;20.35;;;6.40;99.90;;;;;;5123014;27;20088;-82
2022/12/23 05:31:54;;;;;;;62.25;18.77;;;6.30;99.90;;;;;;5133857;27;20815;-80
2022/12/23 05:34:20;;;;;;;78.85;20.30;;;6.30;99.90;;;;;;5133252;27;20038;-79
2022/12/23 05:36:45;;;;;;;53.00;18.65;;;6.40;99.90;;;;;;5122352;27;20127;-81
2022/12/23 05:39:11;;;;;;;58.28;19.80;;;6.30;99.90;;;;;;5119462;27;20027;-80
2022/12/23 05:41:37;;;;;;;59.58;18.33;;;6.30;99.90;;;;;;5129252;27;20103;-79
2022/12/23 05:44:02;;;;;;;59.35;18.88;;;6.30;99.90;;;;;;5122817;27;20040;-79
2022/12/23 05:46:28;;;;;;;61.75;19.60;;;6.30;99.90;;;;;;5128229;27;20031;-79
2022/12/23 05:48:53;;;;;;;55.67;18.98;;;6.30;99.90;;;;;;5124708;27;20243;-80
2022/12/23 05:51:19;;;;;;;69.10;20.65;;;6.20;99.90;;;;;;5124789;27;20031;-80
2022/12/23 05:53:44;;;;;;;63.38;19.88;;;6.20;99.90;;;;;;5128180;27;20539;-79
2022/12/23 05:56:10;;;;;;;74.88;21.13;;;6.30;99.90;;;;;;5128826;27;20062;-79
2022/12/23 05:58:36;;;;;;;67.22;20.52;;;6.20;99.90;;;;;;5132977;27;20488;-79
2022/12/23 06:01:02;;;;;;;74.03;20.45;;;6.20;99.90;;;;;;5124144;27;20568;-82
2022/12/23 06:03:28;;;;;;;78.65;21.98;;;6.20;99.90;;;;;;5128496;27;20624;-80
2022/12/23 06:05:53;;;;;;;104.35;22.63;;;6.20;99.90;;;;;;5127261;27;20097;-80
2022/12/23 06:08:19;;;;;;;57.90;19.73;;;6.20;99.90;;;;;;5125775;27;20036;-80
2022/12/23 06:10:45;;;;;;;64.53;19.85;;;6.20;99.90;;;;;;5126195;27;20400;-80
2022/12/23 06:13:11;;;;;;;63.88;20.20;;;6.20;99.90;;;;;;5123877;27;20039;-80
2022/12/23 06:15:37;;;;;;;64.53;19.65;;;6.10;99.90;;;;;;5130963;27;20027;-80
2022/12/23 06:18:02;;;;;;;133.70;22.60;;;6.10;99.90;;;;;;5128825;27;20080;-81
2022/12/23 06:20:28;;;;;;;60.58;19.05;;;6.00;99.90;;;;;;5127938;27;20408;-82
2022/12/23 06:22:54;;;;;;;65.45;18.90;;;5.90;99.90;;;;;;5123123;27;20043;-80
2022/12/23 06:25:19;;;;;;;71.80;18.35;;;5.90;99.90;;;;;;5109820;27;20031;-81
2022/12/23 06:27:45;;;;;;;51.60;18.02;;;5.90;99.90;;;;;;5126690;27;20095;-80
2022/12/23 06:30:11;;;;;;;57.60;19.13;;;5.70;99.90;;;;;;5130672;27;20106;-84
2022/12/23 06:32:36;;;;;;;51.20;18.40;;;5.80;99.90;;;;;;5114639;27;20038;-79
2022/12/23 06:35:02;;;;;;;56.30;16.77;;;5.70;99.90;;;;;;5123806;27;20073;-79
2022/12/23 06:37:28;;;;;;;202.75;23.25;;;5.70;99.90;;;;;;5118544;27;20039;-80
2022/12/23 06:39:53;;;;;;;163.43;21.13;;;5.70;99.90;;;;;;5125862;27;20412;-80
2022/12/23 06:42:19;;;;;;;47.72;17.50;;;5.70;99.90;;;;;;5125425;27;20031;-79
2022/12/23 06:44:44;;;;;;;83.45;19.15;;;5.70;99.90;;;;;;5128741;27;20042;-79
2022/12/23 06:47:10;;;;;;;63.20;18.23;;;5.70;99.90;;;;;;5130354;27;20543;-79
2022/12/23 06:49:35;;;;;;;178.55;22.70;;;5.70;99.90;;;;;;5127468;27;20039;-80
2022/12/23 06:52:01;;;;;;;187.07;22.90;;;5.80;99.90;;;;;;5120931;27;20341;-79
2022/12/23 06:54:26;;;;;;;286.38;25.02;;;5.80;99.90;;;;;;5129394;27;20092;-79
2022/12/23 06:56:52;;;;;;;211.98;23.45;;;5.80;99.90;;;;;;5125662;27;20057;-80
2022/12/23 06:59:17;;;;;;;168.02;22.65;;;5.90;99.90;;;;;;5119201;27;20035;-83
2022/12/23 07:01:43;;;;;;;63.90;17.52;;;5.90;99.90;;;;;;5131684;27;20366;-80
2022/12/23 07:04:09;;;;;;;65.35;17.65;;;5.90;99.90;;;;;;5134052;27;20034;-79
2022/12/23 07:06:34;;;;;;;45.67;16.52;;;5.90;99.90;;;;;;5138740;27;20052;-79
2022/12/23 07:09:00;;;;;;;85.18;18.25;;;5.90;99.90;;;;;;5123576;27;20042;-80
2022/12/23 07:11:25;;;;;;;50.60;16.30;;;6.00;99.90;;;;;;5125591;27;20088;-79
2022/12/23 07:13:51;;;;;;;51.65;16.40;;;6.00;99.90;;;;;;5125885;27;20039;-79
2022/12/23 07:16:16;;;;;;;50.25;16.92;;;6.00;99.90;;;;;;5128555;27;20031;-79
2022/12/23 07:18:42;;;;;;;54.38;17.70;;;6.00;99.90;;;;;;5125622;27;20040;-82
2022/12/23 07:21:08;;;;;;;53.95;17.08;;;6.00;99.90;;;;;;5125343;27;20394;-79
2022/12/23 07:23:33;;;;;;;64.28;18.13;;;6.00;99.90;;;;;;5118405;27;20434;-79
2022/12/23 07:25:59;;;;;;;55.35;18.13;;;6.10;99.90;;;;;;5126470;27;20035;-79
2022/12/23 07:28:24;;;;;;;51.97;17.27;;;6.10;99.90;;;;;;5129291;27;20050;-81
2022/12/23 07:30:50;;;;;;;51.38;16.98;;;6.00;99.90;;;;;;5126438;27;20044;-79
2022/12/23 07:33:16;;;;;;;54.13;17.58;;;6.00;99.90;;;;;;5122638;27;20065;-80
2022/12/23 07:35:41;;;;;;;53.10;17.88;;;6.00;99.90;;;;;;5121422;27;20051;-80
2022/12/23 07:38:08;;;;;;;49.47;17.38;;;6.10;99.90;;;;;;5120582;27;20039;-81
2022/12/23 07:40:33;;;;;;;51.08;17.20;;;6.10;99.90;;;;;;5126177;27;20032;-80
2022/12/23 07:42:59;;;;;;;46.60;17.02;;;6.10;99.90;;;;;;5121288;27;20373;-80
2022/12/23 07:45:26;;;;;;;46.30;16.77;;;6.10;99.90;;;;;;5124217;27;20035;-79
2022/12/23 07:47:53;;;;;;;48.65;17.33;;;6.00;99.90;;;;;;5124399;27;20038;-79
2022/12/23 07:50:19;;;;;;;44.63;16.38;;;6.00;99.90;;;;;;5123996;27;20039;-79
2022/12/23 07:52:44;;;;;;;44.53;16.35;;;6.10;99.90;;;;;;5121186;27;20086;-79
2022/12/23 07:55:10;;;;;;;47.60;16.23;;;6.00;99.90;;;;;;5125627;27;20031;-80
2022/12/23 07:57:39;;;;;;;52.20;16.25;;;6.00;99.90;;;;;;5124240;27;20039;-80
2022/12/23 08:00:06;;;;;;;41.75;16.02;;;6.00;99.90;;;;;;5118141;27;20088;-80
2022/12/23 08:02:32;;;;;;;43.47;16.23;;;6.10;99.90;;;;;;5119424;27;20031;-79
2022/12/23 08:04:58;;;;;;;44.85;15.68;;;6.10;99.90;;;;;;5130281;27;20039;-80
2022/12/23 08:07:23;;;;;;;44.28;15.80;;;6.10;99.90;;;;;;5138010;27;20171;-85
2022/12/23 08:09:49;;;;;;;43.58;15.82;;;6.00;99.90;;;;;;5125393;27;20036;-80
2022/12/23 08:12:15;;;;;;;47.00;16.63;;;6.10;99.90;;;;;;5139342;27;20039;-80
2022/12/23 08:14:40;;;;;;;44.13;16.42;;;6.10;99.90;;;;;;5125514;28;20104;-79
2022/12/23 08:17:06;;;;;;;43.47;16.05;;;6.10;99.90;;;;;;5131593;28;20040;-80
2022/12/23 08:19:32;;;;;;;48.70;15.75;;;6.10;99.90;;;;;;5119569;28;20035;-79
2022/12/23 08:21:57;;;;;;;45.97;16.45;;;6.10;99.90;;;;;;5117906;28;20027;-79
2022/12/23 08:24:23;;;;;;;39.45;14.48;;;6.10;99.90;;;;;;5126720;28;20043;-80
2022/12/23 08:26:48;;;;;;;38.45;14.00;;;6.10;99.90;;;;;;5124791;28;20112;-81
2022/12/23 08:29:14;;;;;;;39.08;14.65;;;6.10;99.90;;;;;;5129152;28;20553;-80
2022/12/23 08:31:39;;;;;;;42.38;15.73;;;6.10;99.90;;;;;;5122164;28;20057;-80
2022/12/23 08:34:05;;;;;;;45.00;15.35;;;6.10;99.90;;;;;;5120508;28;20089;-80
2022/12/23 08:36:33;;;;;;;36.13;14.75;;;6.20;99.90;;;;;;5135749;27;20500;-80
2022/12/23 08:39:02;;;;;;;58.60;14.57;;;6.10;99.90;;;;;;5132479;27;20039;-79
2022/12/23 08:41:30;;;;;;;36.60;13.98;;;6.10;99.90;;;;;;5124059;27;20122;-80
2022/12/23 08:43:57;;;;;;;36.80;14.13;;;6.10;99.90;;;;;;5121195;27;20035;-80
2022/12/23 08:46:23;;;;;;;43.97;15.82;;;6.20;99.90;;;;;;5130529;27;20035;-80
2022/12/23 08:48:49;;;;;;;47.08;16.33;;;6.10;99.90;;;;;;5137536;27;20038;-80
2022/12/23 08:51:16;;;;;;;55.40;18.27;;;6.20;99.90;;;;;;5137288;27;20451;-80
2022/12/23 08:53:43;;;;;;;370.02;26.00;;;6.10;99.90;;;;;;5130578;27;20095;-80
2022/12/23 08:56:18;;;;;;;336.70;25.17;;;6.10;99.90;;;;;;5135306;27;20035;-79
2022/12/23 08:58:45;;;;;;;134.32;18.65;;;6.10;99.90;;;;;;5117024;28;20084;-82
2022/12/23 09:01:13;;;;;;;321.77;24.73;;;6.10;99.90;;;;;;5117700;27;20119;-79
2022/12/23 09:03:39;;;;;;;178.15;19.25;;;6.10;99.90;;;;;;5127231;27;20500;-79
2022/12/23 09:06:06;;;;;;;73.10;14.70;;;6.20;99.90;;;;;;5126125;27;20031;-80
2022/12/23 09:08:33;;;;;;;321.77;24.05;;;6.10;99.90;;;;;;5125764;27;20080;-79
2022/12/23 09:10:58;;;;;;;145.93;17.52;;;6.20;99.90;;;;;;5120955;27;20442;-80
2022/12/23 09:13:24;;;;;;;143.68;17.40;;;6.20;99.90;;;;;;5119522;27;20130;-81
2022/12/23 09:15:49;;;;;;;86.47;15.18;;;6.20;99.90;;;;;;5118258;27;20031;-80
2022/12/23 09:18:15;;;;;;;219.48;19.88;;;6.20;99.90;;;;;;5127301;27;20073;-80
2022/12/23 09:20:40;;;;;;;218.05;20.67;;;6.30;99.90;;;;;;5133437;27;20069;-82
2022/12/23 09:23:06;;;;;;;189.70;18.75;;;6.30;99.90;;;;;;5142630;27;20421;-82
2022/12/23 09:25:34;;;;;;;138.52;16.65;;;6.30;99.90;;;;;;5141744;27;20075;-83
2022/12/23 09:28:00;;;;;;;137.30;16.25;;;6.30;99.90;;;;;;5131237;27;20031;-79
2022/12/23 09:30:26;;;;;;;103.10;16.80;;;6.30;99.90;;;;;;5132132;27;20118;-80
2022/12/23 09:32:51;;;;;;;57.20;14.00;;;6.30;99.90;;;;;;5131776;27;20035;-80
2022/12/23 09:35:17;;;;;;;52.33;13.13;;;6.40;99.90;;;;;;5117656;28;20058;-81
2022/12/23 09:37:42;;;;;;;152.93;17.80;;;6.40;99.90;;;;;;5120976;27;20040;-81
2022/12/23 09:40:13;;;;;;;45.90;12.88;;;6.40;99.90;;;;;;5128049;27;20048;-80
2022/12/23 09:42:57;;;;;;;43.45;12.70;;;6.40;99.90;;;;;;5117504;28;20036;-80
2022/12/23 09:46:07;;;;;;;40.63;13.40;;;6.40;99.90;;;;;;5132780;27;20024;-80
2022/12/23 09:48:44;;;;;;;104.93;14.90;;;6.50;99.90;;;;;;5113359;27;20118;-80
2022/12/23 09:51:12;;;;;;;81.82;14.38;;;6.50;99.90;;;;;;5135824;27;20031;-80
2022/12/23 09:54:15;;;;;;;65.05;13.95;;;6.50;99.90;;;;;;5129009;27;20036;-80
2022/12/23 09:57:04;;;;;;;92.15;15.13;;;6.50;99.90;;;;;;5115655;28;20439;-79
2022/12/23 09:59:36;;;;;;;61.80;14.45;;;6.60;99.90;;;;;;5128945;27;20046;-80
2022/12/23 10:02:20;;;;;;;106.93;16.35;;;6.60;99.90;;;;;;5132229;27;20130;-80
2022/12/23 10:04:52;;;;;;;;;;;6.60;99.90;;;;;;5133480;27;20038;-80
2022/12/23 10:07:22;;;;;;;94.75;13.85;;;6.60;99.90;;;;;;5129233;27;19915;-80
2022/12/23 10:09:50;;;;;;;67.25;13.95;;;6.70;99.90;;;;;;5128554;27;20030;-80
2022/12/23 10:12:36;;;;;;;56.92;12.75;;;6.60;99.90;;;;;;5116596;27;20112;-79
2022/12/23 10:15:15;;;;;;;101.35;15.02;;;6.60;99.90;;;;;;5133790;27;20125;-80
2022/12/23 10:17:42;;;;;;;60.60;13.40;;;6.60;99.90;;;;;;5127308;27;20032;-80
2022/12/23 10:20:19;;;;;;;111.78;14.40;;;6.70;99.90;;;;;;5125192;27;20043;-80
2022/12/23 10:22:46;;;;;;;98.70;14.35;;;6.60;99.90;;;;;;5124035;27;20038;-80
2022/12/23 10:25:32;;;;;;;47.50;12.65;;;6.70;99.90;;;;;;5126322;27;20036;-80
2022/12/23 10:27:57;;;;;;;44.67;11.77;;;6.70;99.90;;;;;;5116796;28;20132;-80
2022/12/23 10:30:23;;;;;;;159.30;17.13;;;6.70;99.90;;;;;;5116511;28;20032;-80
2022/12/23 10:33:33;;;;;;;45.53;11.82;;;6.80;99.90;;;;;;5116450;28;20042;-80
2022/12/23 10:36:08;;;;;;;54.20;13.13;;;6.80;99.90;;;;;;5116987;28;20046;-81
2022/12/23 10:38:57;;;;;;;57.60;12.45;;;6.80;99.90;;;;;;5116808;28;20050;-81
2022/12/23 10:42:07;;;;;;;46.00;12.13;;;6.80;99.90;;;;;;5116845;28;20039;-80
2022/12/23 10:44:42;;;;;;;36.35;12.38;;;6.80;99.90;;;;;;5078779;27;20123;-81
2022/12/23 10:47:16;;;;;;;41.30;12.25;;;6.80;99.90;;;;;;5119042;27;20130;-80
2022/12/23 10:49:57;;;;;;;54.33;12.52;;;6.90;99.90;;;;;;5117469;28;20043;-80
2022/12/23 10:52:32;;;;;;;31.75;12.80;;;6.90;99.90;;;;;;5116782;28;20112;-80
2022/12/23 10:54:58;;;;;;;38.03;12.68;;;6.90;99.90;;;;;;5115965;28;20100;-80
2022/12/23 10:57:24;;;;;;;29.73;12.32;;;6.90;99.90;;;;;;5117829;28;20121;-83
2022/12/23 10:59:50;;;;;;;33.20;13.10;;;6.90;99.90;;;;;;5118508;28;20063;-80
2022/12/23 11:02:42;;;;;;;31.70;12.30;;;6.90;99.90;;;;;;5117223;28;20382;-80
2022/12/23 11:05:14;;;;;;;31.90;12.88;;;6.90;99.90;;;;;;5117545;28;20036;-81
2022/12/23 11:07:40;;;;;;;28.23;12.57;;;6.90;99.90;;;;;;5118490;28;20039;-82
2022/12/23 11:10:15;;;;;;;30.65;12.82;;;6.90;99.90;;;;;;5117249;28;20138;-80
2022/12/23 11:12:49;;;;;;;31.67;12.63;;;6.90;99.90;;;;;;5117436;28;20050;-80
2022/12/23 11:15:31;;;;;;;32.03;12.25;;;6.90;99.90;;;;;;5118332;28;20043;-81
2022/12/23 11:18:17;;;;;;;29.08;12.02;;;6.90;99.90;;;;;;5116616;28;20040;-80
2022/12/23 11:21:02;;;;;;;33.65;13.32;;;6.90;99.90;;;;;;5117124;28;20027;-80
2022/12/23 11:23:30;;;;;;;29.75;12.18;;;7.00;99.90;;;;;;5116376;28;20027;-80
2022/12/23 11:26:00;;;;;;;34.22;13.70;;;7.00;99.90;;;;;;5115668;28;20035;-80
2022/12/23 11:28:26;;;;;;;31.35;13.02;;;7.00;99.90;;;;;;5115144;28;20095;-81
2022/12/23 11:31:08;;;;;;;32.58;13.32;;;7.00;99.90;;;;;;5115760;28;20122;-80
2022/12/23 11:33:39;;;;;;;41.05;13.77;;;7.00;99.90;;;;;;5115228;28;20051;-80
2022/12/23 11:36:11;;;;;;;32.58;12.85;;;7.00;99.90;;;;;;5118237;28;20035;-80
2022/12/23 11:38:48;;;;;;;32.08;12.60;;;7.00;99.90;;;;;;5116593;28;20046;-81
2022/12/23 11:41:21;;;;;;;29.90;12.43;;;7.00;99.90;;;;;;5117219;28;20044;-80
2022/12/23 11:44:04;;;;;;;27.90;11.93;;;7.00;99.90;;;;;;5122112;27;20039;-81
2022/12/23 11:46:32;;;;;;;30.88;12.98;;;7.10;99.90;;;;;;5124794;27;20031;-82
2022/12/23 11:49:08;;;;;;;27.70;12.00;;;7.10;99.90;;;;;;5117181;28;20043;-80
2022/12/23 11:51:33;;;;;;;24.95;11.75;;;7.00;99.90;;;;;;5118689;28;20035;-81
2022/12/23 11:54:01;;;;;;;30.13;11.85;;;7.10;99.90;;;;;;5121510;28;20111;-81
2022/12/23 11:56:33;;;;;;;31.13;13.05;;;7.00;99.90;;;;;;5118562;28;20035;-80
2022/12/23 11:59:05;;;;;;;30.27;13.20;;;7.00;99.90;;;;;;5118627;28;20224;-81
2022/12/23 12:01:32;;;;;;;30.95;13.10;;;7.10;99.90;;;;;;5121030;28;20036;-81
2022/12/23 12:04:02;;;;;;;31.00;13.40;;;7.10;99.90;;;;;;5120836;28;20043;-80
2022/12/23 12:06:28;;;;;;;29.40;12.95;;;7.10;99.90;;;;;;5121064;28;20421;-82
2022/12/23 12:08:57;;;;;;;28.33;12.50;;;7.10;99.90;;;;;;5120406;28;20040;-81
2022/12/23 12:11:37;;;;;;;31.23;13.02;;;7.10;99.90;;;;;;5119919;28;20039;-81
2022/12/23 12:14:06;;;;;;;30.75;13.32;;;7.10;99.90;;;;;;5120027;28;20501;-80
2022/12/23 12:16:50;;;;;;;29.77;12.50;;;7.10;99.90;;;;;;5119843;28;20039;-82
2022/12/23 12:19:24;;;;;;;35.38;13.70;;;7.10;99.90;;;;;;5117451;28;20047;-82
2022/12/23 12:21:55;;;;;;;35.40;14.40;;;7.10;99.90;;;;;;5119352;28;20071;-82
2022/12/23 12:24:46;;;;;;;34.60;13.60;;;7.10;99.90;;;;;;5119998;28;20119;-81
2022/12/23 12:27:12;;;;;;;34.25;12.95;;;7.10;99.90;;;;;;5120949;28;20134;-82
2022/12/23 12:29:40;;;;;;;38.30;14.73;;;7.20;99.90;;;;;;5119662;28;20071;-81
2022/12/23 12:32:28;;;;;;;32.08;13.68;;;7.10;99.90;;;;;;5122172;28;20035;-82
2022/12/23 12:35:01;;;;;;;33.05;13.43;;;7.20;99.90;;;;;;5121909;28;20036;-82
2022/12/23 12:37:35;;;;;;;34.40;14.05;;;7.10;99.90;;;;;;5119828;28;20118;-83
2022/12/23 12:40:02;;;;;;;32.00;13.32;;;7.20;99.90;;;;;;5121935;28;20202;-81
2022/12/23 12:42:42;;;;;;;36.78;13.07;;;7.20;99.90;;;;;;5121011;28;20127;-82
2022/12/23 12:45:21;;;;;;;29.80;12.88;;;7.20;99.90;;;;;;5121297;28;20036;-81
2022/12/23 12:48:24;;;;;;;25.20;12.35;;;7.20;99.90;;;;;;5119782;28;20078;-81
2022/12/23 12:51:11;;;;;;;28.92;12.70;;;7.20;99.90;;;;;;5120866;28;20093;-81
2022/12/23 12:53:48;;;;;;;27.15;12.73;;;7.20;99.90;;;;;;5119444;28;20047;-82
2022/12/23 12:56:48;;;;;;;27.60;13.40;;;7.20;99.90;;;;;;5120070;28;20520;-81
2022/12/23 12:59:35;;;;;;;26.95;13.40;;;7.10;99.90;;;;;;5086307;28;20579;-80
2022/12/23 13:02:10;;;;;;;27.50;12.63;;;7.10;99.90;;;;;;5120302;28;20082;-80
2022/12/23 13:05:05;;;;;;;26.15;12.13;;;7.20;99.90;;;;;;5122077;28;20119;-81
2022/12/23 13:07:52;;;;;;;23.40;10.50;;;7.20;99.90;;;;;;5120246;28;20586;-81
2022/12/23 13:10:43;;;;;;;23.83;11.00;;;7.20;99.90;;;;;;5120550;28;20039;-81
2022/12/23 13:13:46;;;;;;;25.02;11.10;;;7.20;99.90;;;;;;5120738;28;20489;-81
2022/12/23 13:16:41;;;;;;;24.35;11.38;;;7.20;99.90;;;;;;5120492;28;20207;-80
2022/12/23 13:19:16;;;;;;;24.27;11.73;;;7.20;99.90;;;;;;5118689;28;20040;-80
2022/12/23 13:21:44;;;;;;;23.60;10.43;;;7.20;99.90;;;;;;5119588;28;20055;-81